sensor_id;sensor_type;location;lat;lon;timestamp;temperature;humidity
8557;DHT22;4316;53.840;10.762;2022-11-20T00:02:10;2.90;99.90
8557;DHT22;4316;53.840;10.762;2022-11-20T00:04:36;3.00;99.90
8557;DHT22;4316;53.840;10.762;2022-11-20T00:07:01;3.00;99.90
8557;DHT22;4316;53.840;10.762;2022-11-20T00:09:27;3.00;99.90
8557;DHT22;4316;53.840;10.762;2022-11-20T00:11:53;3.00;99.90
8557;DHT22;4316;53.840;10.762;2022-11-20T00:14:18;3.00;99.90
8557;DHT22;4316;53.840;10.762;2022-11-20T00:16:44;3.00;99.90
8557;DHT22;4316;53.840;10.762;2022-11-20T00:19:10;2.90;99.90
8557;DHT22;4316;53.840;10.762;2022-11-20T00:21:35;3.00;99.90
8557;DHT22;4316;53.840;10.762;2022-11-20T00:24:01;3.00;99.90
8557;DHT22;4316;53.840;10.762;2022-11-20T00:26:28;2.90;99.90
8557;DHT22;4316;53.840;10.762;2022-11-20T00:28:58;2.80;99.90
8557;DHT22;4316;53.840;10.762;2022-11-20T00:31:25;2.80;99.90
8557;DHT22;4316;53.840;10.762;2022-11-20T00:33:51;2.80;99.90
8557;DHT22;4316;53.840;10.762;2022-11-20T00:36:20;2.70;99.90
8557;DHT22;4316;53.840;10.762;2022-11-20T00:38:46;2.80;99.90
8557;DHT22;4316;53.840;10.762;2022-11-20T00:41:15;2.70;99.90
8557;DHT22;4316;53.840;10.762;2022-11-20T00:43:42;2.70;99.90
8557;DHT22;4316;53.840;10.762;2022-11-20T00:46:10;2.70;99.90
8557;DHT22;4316;53.840;10.762;2022-11-20T00:48:37;2.80;99.90
8557;DHT22;4316;53.840;10.762;2022-11-20T00:51:02;2.70;99.90
8557;DHT22;4316;53.840;10.762;2022-11-20T00:53:28;2.80;99.90
8557;DHT22;4316;53.840;10.762;2022-11-20T00:56:02;2.80;99.90
8557;DHT22;4316;53.840;10.762;2022-11-20T00:58:30;2.80;99.90
8557;DHT22;4316;53.840;10.762;2022-11-20T01:01:08;2.80;99.90
8557;DHT22;4316;53.840;10.762;2022-11-20T01:03:35;2.70;99.90
8557;DHT22;4316;53.840;10.762;2022-11-20T01:06:03;2.70;99.90
8557;DHT22;4316;53.840;10.762;2022-11-20T01:08:31;2.70;99.90
8557;DHT22;4316;53.840;10.762;2022-11-20T01:11:02;2.80;99.90
8557;DHT22;4316;53.840;10.762;2022-11-20T01:13:29;2.80;99.90
8557;DHT22;4316;53.840;10.762;2022-11-20T01:18:30;2.80;99.90
8557;DHT22;4316;53.840;10.762;2022-11-20T01:20:59;2.70;99.90
8557;DHT22;4316;53.840;10.762;2022-11-20T01:23:25;2.70;99.90
8557;DHT22;4316;53.840;10.762;2022-11-20T01:25:50;2.70;99.90
8557;DHT22;4316;53.840;10.762;2022-11-20T01:28:16;2.80;99.90
8557;DHT22;4316;53.840;10.762;2022-11-20T01:30:41;2.70;99.90
8557;DHT22;4316;53.840;10.762;2022-11-20T01:33:07;2.80;99.90
8557;DHT22;4316;53.840;10.762;2022-11-20T01:35:33;2.70;99.90
8557;DHT22;4316;53.840;10.762;2022-11-20T01:37:58;2.70;99.90
8557;DHT22;4316;53.840;10.762;2022-11-20T01:40:24;2.70;99.90
8557;DHT22;4316;53.840;10.762;2022-11-20T01:43:00;2.70;99.90
8557;DHT22;4316;53.840;10.762;2022-11-20T01:46:16;2.60;99.90
8557;DHT22;4316;53.840;10.762;2022-11-20T01:51:16;2.60;99.90
8557;DHT22;4316;53.840;10.762;2022-11-20T01:53:45;2.70;99.90
8557;DHT22;4316;53.840;10.762;2022-11-20T01:56:12;2.70;99.90
8557;DHT22;4316;53.840;10.762;2022-11-20T01:58:43;2.60;99.90
8557;DHT22;4316;53.840;10.762;2022-11-20T02:01:11;2.60;99.90
8557;DHT22;4316;53.840;10.762;2022-11-20T02:03:36;2.60;99.90
8557;DHT22;4316;53.840;10.762;2022-11-20T02:06:12;2.60;99.90
8557;DHT22;4316;53.840;10.762;2022-11-20T02:08:39;2.60;99.90
8557;DHT22;4316;53.840;10.762;2022-11-20T02:11:05;2.50;99.90
8557;DHT22;4316;53.840;10.762;2022-11-20T02:13:30;2.50;99.90
8557;DHT22;4316;53.840;10.762;2022-11-20T02:16:27;2.60;99.90
8557;DHT22;4316;53.840;10.762;2022-11-20T02:18:55;2.50;99.90
8557;DHT22;4316;53.840;10.762;2022-11-20T02:21:39;2.50;99.90
8557;DHT22;4316;53.840;10.762;2022-11-20T02:24:18;2.40;99.90
8557;DHT22;4316;53.840;10.762;2022-11-20T02:26:58;2.40;99.90
8557;DHT22;4316;53.840;10.762;2022-11-20T02:29:28;2.40;99.90
8557;DHT22;4316;53.840;10.762;2022-11-20T02:31:56;2.40;99.90
8557;DHT22;4316;53.840;10.762;2022-11-20T02:34:23;2.30;99.90
8557;DHT22;4316;53.840;10.762;2022-11-20T02:36:49;2.40;99.90
8557;DHT22;4316;53.840;10.762;2022-11-20T02:39:16;2.40;99.90
8557;DHT22;4316;53.840;10.762;2022-11-20T02:41:42;2.40;99.90
8557;DHT22;4316;53.840;10.762;2022-11-20T02:44:08;2.30;99.90
8557;DHT22;4316;53.840;10.762;2022-11-20T02:46:34;2.30;99.90
8557;DHT22;4316;53.840;10.762;2022-11-20T02:49:02;2.40;99.90
8557;DHT22;4316;53.840;10.762;2022-11-20T02:51:28;2.30;99.90
8557;DHT22;4316;53.840;10.762;2022-11-20T02:53:53;2.30;99.90
8557;DHT22;4316;53.840;10.762;2022-11-20T02:56:19;2.30;99.90
8557;DHT22;4316;53.840;10.762;2022-11-20T02:58:45;2.40;99.90
8557;DHT22;4316;53.840;10.762;2022-11-20T03:01:11;2.50;99.90
8557;DHT22;4316;53.840;10.762;2022-11-20T03:03:37;2.50;99.90
8557;DHT22;4316;53.840;10.762;2022-11-20T03:06:03;2.50;99.90
8557;DHT22;4316;53.840;10.762;2022-11-20T03:08:28;2.50;99.90
8557;DHT22;4316;53.840;10.762;2022-11-20T03:10:54;2.50;99.90
8557;DHT22;4316;53.840;10.762;2022-11-20T03:13:19;2.40;99.90
8557;DHT22;4316;53.840;10.762;2022-11-20T03:15:45;2.40;99.90
8557;DHT22;4316;53.840;10.762;2022-11-20T03:18:10;2.40;99.90
8557;DHT22;4316;53.840;10.762;2022-11-20T03:20:36;2.30;99.90
8557;DHT22;4316;53.840;10.762;2022-11-20T03:23:02;2.40;99.90
8557;DHT22;4316;53.840;10.762;2022-11-20T03:25:28;2.40;99.90
8557;DHT22;4316;53.840;10.762;2022-11-20T03:27:54;2.30;99.90
8557;DHT22;4316;53.840;10.762;2022-11-20T03:30:19;2.40;99.90
8557;DHT22;4316;53.840;10.762;2022-11-20T03:32:45;2.40;99.90
8557;DHT22;4316;53.840;10.762;2022-11-20T03:35:11;2.50;99.90
8557;DHT22;4316;53.840;10.762;2022-11-20T03:37:37;2.50;99.90
8557;DHT22;4316;53.840;10.762;2022-11-20T03:40:03;2.50;99.90
8557;DHT22;4316;53.840;10.762;2022-11-20T03:42:29;2.50;99.90
8557;DHT22;4316;53.840;10.762;2022-11-20T03:45:14;2.40;99.90
8557;DHT22;4316;53.840;10.762;2022-11-20T03:47:40;2.50;99.90
8557;DHT22;4316;53.840;10.762;2022-11-20T03:50:06;2.60;99.90
8557;DHT22;4316;53.840;10.762;2022-11-20T03:52:32;2.50;99.90
8557;DHT22;4316;53.840;10.762;2022-11-20T03:55:00;2.40;99.90
8557;DHT22;4316;53.840;10.762;2022-11-20T03:57:25;2.40;99.90
8557;DHT22;4316;53.840;10.762;2022-11-20T03:59:51;2.40;99.90
8557;DHT22;4316;53.840;10.762;2022-11-20T04:02:17;2.40;99.90
8557;DHT22;4316;53.840;10.762;2022-11-20T04:04:42;2.50;99.90
8557;DHT22;4316;53.840;10.762;2022-11-20T04:07:08;2.40;99.90
8557;DHT22;4316;53.840;10.762;2022-11-20T04:09:33;2.50;99.90
8557;DHT22;4316;53.840;10.762;2022-11-20T04:11:59;2.50;99.90
8557;DHT22;4316;53.840;10.762;2022-11-20T04:14:25;2.50;99.90
8557;DHT22;4316;53.840;10.762;2022-11-20T04:16:50;2.50;99.90
8557;DHT22;4316;53.840;10.762;2022-11-20T04:19:18;2.50;99.90
8557;DHT22;4316;53.840;10.762;2022-11-20T04:21:44;2.50;99.90
8557;DHT22;4316;53.840;10.762;2022-11-20T04:24:09;2.40;99.90
8557;DHT22;4316;53.840;10.762;2022-11-20T04:26:38;2.40;99.90
8557;DHT22;4316;53.840;10.762;2022-11-20T04:29:04;2.40;99.90
8557;DHT22;4316;53.840;10.762;2022-11-20T04:31:32;2.40;99.90
8557;DHT22;4316;53.840;10.762;2022-11-20T04:34:03;2.40;99.90
8557;DHT22;4316;53.840;10.762;2022-11-20T04:36:29;2.30;99.90
8557;DHT22;4316;53.840;10.762;2022-11-20T04:39:00;2.30;99.90
8557;DHT22;4316;53.840;10.762;2022-11-20T04:41:32;2.30;99.90
8557;DHT22;4316;53.840;10.762;2022-11-20T04:44:00;2.40;99.90
8557;DHT22;4316;53.840;10.762;2022-11-20T04:46:29;2.40;99.90
8557;DHT22;4316;53.840;10.762;2022-11-20T04:48:55;2.40;99.90
8557;DHT22;4316;53.840;10.762;2022-11-20T04:51:21;2.40;99.90
8557;DHT22;4316;53.840;10.762;2022-11-20T04:53:47;2.40;99.90
8557;DHT22;4316;53.840;10.762;2022-11-20T04:56:13;2.40;99.90
8557;DHT22;4316;53.840;10.762;2022-11-20T04:58:39;2.40;99.90
8557;DHT22;4316;53.840;10.762;2022-11-20T05:01:13;2.40;99.90
8557;DHT22;4316;53.840;10.762;2022-11-20T05:03:40;2.40;99.90
8557;DHT22;4316;53.840;10.762;2022-11-20T05:06:07;2.30;99.90
8557;DHT22;4316;53.840;10.762;2022-11-20T05:08:33;2.30;99.90
8557;DHT22;4316;53.840;10.762;2022-11-20T05:11:09;2.30;99.90
8557;DHT22;4316;53.840;10.762;2022-11-20T05:13:35;2.30;99.90
8557;DHT22;4316;53.840;10.762;2022-11-20T05:16:03;2.30;99.90
8557;DHT22;4316;53.840;10.762;2022-11-20T05:18:29;2.30;99.90
8557;DHT22;4316;53.840;10.762;2022-11-20T05:20:56;2.30;99.90
8557;DHT22;4316;53.840;10.762;2022-11-20T05:23:21;2.30;99.90
8557;DHT22;4316;53.840;10.762;2022-11-20T05:25:47;2.20;99.90
8557;DHT22;4316;53.840;10.762;2022-11-20T05:28:13;2.20;99.90
8557;DHT22;4316;53.840;10.762;2022-11-20T05:30:38;2.30;99.90
8557;DHT22;4316;53.840;10.762;2022-11-20T05:33:04;2.30;99.90
8557;DHT22;4316;53.840;10.762;2022-11-20T05:35:29;2.30;99.90
8557;DHT22;4316;53.840;10.762;2022-11-20T05:37:55;2.20;99.90
8557;DHT22;4316;53.840;10.762;2022-11-20T05:40:20;2.20;99.90
8557;DHT22;4316;53.840;10.762;2022-11-20T05:42:46;2.20;99.90
8557;DHT22;4316;53.840;10.762;2022-11-20T05:45:11;2.30;99.90
8557;DHT22;4316;53.840;10.762;2022-11-20T05:47:37;2.30;99.90
8557;DHT22;4316;53.840;10.762;2022-11-20T05:50:03;2.20;99.90
8557;DHT22;4316;53.840;10.762;2022-11-20T05:52:29;2.30;99.90
8557;DHT22;4316;53.840;10.762;2022-11-20T05:54:55;2.20;99.90
8557;DHT22;4316;53.840;10.762;2022-11-20T05:57:20;2.20;99.90
8557;DHT22;4316;53.840;10.762;2022-11-20T05:59:46;2.20;99.90
8557;DHT22;4316;53.840;10.762;2022-11-20T06:02:12;2.20;99.90
8557;DHT22;4316;53.840;10.762;2022-11-20T06:04:37;2.10;99.90
8557;DHT22;4316;53.840;10.762;2022-11-20T06:07:04;2.30;99.90
8557;DHT22;4316;53.840;10.762;2022-11-20T06:09:30;2.20;99.90
8557;DHT22;4316;53.840;10.762;2022-11-20T06:11:56;2.10;99.90
8557;DHT22;4316;53.840;10.762;2022-11-20T06:14:21;2.10;99.90
8557;DHT22;4316;53.840;10.762;2022-11-20T06:16:47;2.10;99.90
8557;DHT22;4316;53.840;10.762;2022-11-20T06:19:12;2.20;99.90
8557;DHT22;4316;53.840;10.762;2022-11-20T06:21:38;2.30;99.90
8557;DHT22;4316;53.840;10.762;2022-11-20T06:24:04;2.30;99.90
8557;DHT22;4316;53.840;10.762;2022-11-20T06:26:30;2.30;99.90
8557;DHT22;4316;53.840;10.762;2022-11-20T06:28:56;2.20;99.90
8557;DHT22;4316;53.840;10.762;2022-11-20T06:31:23;2.20;99.90
8557;DHT22;4316;53.840;10.762;2022-11-20T06:33:50;2.20;99.90
8557;DHT22;4316;53.840;10.762;2022-11-20T06:36:17;2.20;99.90
8557;DHT22;4316;53.840;10.762;2022-11-20T06:38:43;2.10;99.90
8557;DHT22;4316;53.840;10.762;2022-11-20T06:41:14;2.00;99.90
8557;DHT22;4316;53.840;10.762;2022-11-20T06:43:40;2.10;99.90
8557;DHT22;4316;53.840;10.762;2022-11-20T06:46:05;2.10;99.90
8557;DHT22;4316;53.840;10.762;2022-11-20T06:48:31;2.20;99.90
8557;DHT22;4316;53.840;10.762;2022-11-20T06:50:57;2.30;99.90
8557;DHT22;4316;53.840;10.762;2022-11-20T06:53:23;2.20;99.90
8557;DHT22;4316;53.840;10.762;2022-11-20T06:55:50;2.30;99.90
8557;DHT22;4316;53.840;10.762;2022-11-20T06:58:16;2.30;99.90
8557;DHT22;4316;53.840;10.762;2022-11-20T07:00:42;2.30;99.90
8557;DHT22;4316;53.840;10.762;2022-11-20T07:03:10;2.30;99.90
8557;DHT22;4316;53.840;10.762;2022-11-20T07:05:36;2.30;99.90
8557;DHT22;4316;53.840;10.762;2022-11-20T07:08:02;2.30;99.90
8557;DHT22;4316;53.840;10.762;2022-11-20T07:10:28;2.30;99.90
8557;DHT22;4316;53.840;10.762;2022-11-20T07:12:54;2.40;99.90
8557;DHT22;4316;53.840;10.762;2022-11-20T07:15:21;2.40;99.90
8557;DHT22;4316;53.840;10.762;2022-11-20T07:17:47;2.40;99.90
8557;DHT22;4316;53.840;10.762;2022-11-20T07:20:14;2.30;99.90
8557;DHT22;4316;53.840;10.762;2022-11-20T07:22:40;2.30;99.90
8557;DHT22;4316;53.840;10.762;2022-11-20T07:25:06;2.30;99.90
8557;DHT22;4316;53.840;10.762;2022-11-20T07:27:32;2.30;99.90
8557;DHT22;4316;53.840;10.762;2022-11-20T07:29:57;2.30;99.90
8557;DHT22;4316;53.840;10.762;2022-11-20T07:32:23;2.30;99.90
8557;DHT22;4316;53.840;10.762;2022-11-20T07:34:49;2.30;99.90
8557;DHT22;4316;53.840;10.762;2022-11-20T07:37:15;2.30;99.90
8557;DHT22;4316;53.840;10.762;2022-11-20T07:39:41;2.30;99.90
8557;DHT22;4316;53.840;10.762;2022-11-20T07:42:07;2.30;99.90
8557;DHT22;4316;53.840;10.762;2022-11-20T07:44:36;2.30;99.90
8557;DHT22;4316;53.840;10.762;2022-11-20T07:47:02;2.30;99.90
8557;DHT22;4316;53.840;10.762;2022-11-20T07:49:27;2.30;99.90
8557;DHT22;4316;53.840;10.762;2022-11-20T07:51:53;2.30;99.90
8557;DHT22;4316;53.840;10.762;2022-11-20T07:54:22;2.30;99.90
8557;DHT22;4316;53.840;10.762;2022-11-20T07:56:48;2.30;99.90
8557;DHT22;4316;53.840;10.762;2022-11-20T07:59:14;2.30;99.90
8557;DHT22;4316;53.840;10.762;2022-11-20T08:01:41;2.30;99.90
8557;DHT22;4316;53.840;10.762;2022-11-20T08:04:07;2.30;99.90
8557;DHT22;4316;53.840;10.762;2022-11-20T08:06:33;2.30;99.90
8557;DHT22;4316;53.840;10.762;2022-11-20T08:08:58;2.40;99.90
8557;DHT22;4316;53.840;10.762;2022-11-20T08:11:24;2.30;99.90
8557;DHT22;4316;53.840;10.762;2022-11-20T08:14:08;2.40;99.90
8557;DHT22;4316;53.840;10.762;2022-11-20T08:16:37;2.40;99.90
8557;DHT22;4316;53.840;10.762;2022-11-20T08:19:03;2.50;99.90
8557;DHT22;4316;53.840;10.762;2022-11-20T08:21:29;2.60;99.90
8557;DHT22;4316;53.840;10.762;2022-11-20T08:23:55;2.50;99.90
8557;DHT22;4316;53.840;10.762;2022-11-20T08:26:21;2.50;99.90
8557;DHT22;4316;53.840;10.762;2022-11-20T08:28:47;2.40;99.90
8557;DHT22;4316;53.840;10.762;2022-11-20T08:31:12;2.40;99.90
8557;DHT22;4316;53.840;10.762;2022-11-20T08:33:38;2.40;99.90
8557;DHT22;4316;53.840;10.762;2022-11-20T08:36:05;2.40;99.90
8557;DHT22;4316;53.840;10.762;2022-11-20T08:38:31;2.40;99.90
8557;DHT22;4316;53.840;10.762;2022-11-20T08:40:58;2.50;99.90
8557;DHT22;4316;53.840;10.762;2022-11-20T08:43:42;2.50;99.90
8557;DHT22;4316;53.840;10.762;2022-11-20T08:46:08;2.50;99.90
8557;DHT22;4316;53.840;10.762;2022-11-20T08:48:34;2.40;99.90
8557;DHT22;4316;53.840;10.762;2022-11-20T08:50:59;2.50;99.90
8557;DHT22;4316;53.840;10.762;2022-11-20T08:53:26;2.50;99.90
8557;DHT22;4316;53.840;10.762;2022-11-20T08:55:51;2.50;99.90
8557;DHT22;4316;53.840;10.762;2022-11-20T08:58:17;2.50;99.90
8557;DHT22;4316;53.840;10.762;2022-11-20T09:00:42;2.60;99.90
8557;DHT22;4316;53.840;10.762;2022-11-20T09:03:08;2.50;99.90
8557;DHT22;4316;53.840;10.762;2022-11-20T09:05:34;2.50;99.90
8557;DHT22;4316;53.840;10.762;2022-11-20T09:07:59;2.50;99.90
8557;DHT22;4316;53.840;10.762;2022-11-20T09:10:26;2.50;99.90
8557;DHT22;4316;53.840;10.762;2022-11-20T09:12:52;2.50;99.90
8557;DHT22;4316;53.840;10.762;2022-11-20T09:15:18;2.50;99.90
8557;DHT22;4316;53.840;10.762;2022-11-20T09:17:55;2.40;99.90
8557;DHT22;4316;53.840;10.762;2022-11-20T09:20:21;2.40;99.90
8557;DHT22;4316;53.840;10.762;2022-11-20T09:22:47;2.50;99.90
8557;DHT22;4316;53.840;10.762;2022-11-20T09:25:12;2.50;99.90
8557;DHT22;4316;53.840;10.762;2022-11-20T09:27:38;2.60;99.90
8557;DHT22;4316;53.840;10.762;2022-11-20T09:30:04;2.60;99.90
8557;DHT22;4316;53.840;10.762;2022-11-20T09:32:30;2.50;99.90
8557;DHT22;4316;53.840;10.762;2022-11-20T09:34:56;2.50;99.90
8557;DHT22;4316;53.840;10.762;2022-11-20T09:37:21;2.50;99.90
8557;DHT22;4316;53.840;10.762;2022-11-20T09:39:47;2.60;99.90
8557;DHT22;4316;53.840;10.762;2022-11-20T09:45:30;2.70;99.90
8557;DHT22;4316;53.840;10.762;2022-11-20T09:48:14;3.10;99.90
8557;DHT22;4316;53.840;10.762;2022-11-20T09:51:06;3.50;99.90
8557;DHT22;4316;53.840;10.762;2022-11-20T09:56:08;3.80;99.90
8557;DHT22;4316;53.840;10.762;2022-11-20T09:58:41;4.50;99.90
8557;DHT22;4316;53.840;10.762;2022-11-20T10:01:19;4.50;99.90
8557;DHT22;4316;53.840;10.762;2022-11-20T10:06:41;3.90;99.90
8557;DHT22;4316;53.840;10.762;2022-11-20T10:17:29;3.40;99.90
8557;DHT22;4316;53.840;10.762;2022-11-20T10:23:11;3.20;99.90
8557;DHT22;4316;53.840;10.762;2022-11-20T10:25:41;3.20;99.90
8557;DHT22;4316;53.840;10.762;2022-11-20T10:31:37;3.30;99.90
8557;DHT22;4316;53.840;10.762;2022-11-20T10:34:16;3.30;99.90
8557;DHT22;4316;53.840;10.762;2022-11-20T10:36:54;3.20;99.90
8557;DHT22;4316;53.840;10.762;2022-11-20T10:47:55;3.20;99.90
8557;DHT22;4316;53.840;10.762;2022-11-20T10:50:57;3.10;99.90
8557;DHT22;4316;53.840;10.762;2022-11-20T10:59:03;3.20;99.90
8557;DHT22;4316;53.840;10.762;2022-11-20T11:01:30;3.20;99.90
8557;DHT22;4316;53.840;10.762;2022-11-20T11:03:56;3.30;99.90
8557;DHT22;4316;53.840;10.762;2022-11-20T11:06:56;3.50;99.90
8557;DHT22;4316;53.840;10.762;2022-11-20T11:09:32;3.70;99.90
8557;DHT22;4316;53.840;10.762;2022-11-20T11:11:58;4.00;99.90
8557;DHT22;4316;53.840;10.762;2022-11-20T11:14:23;3.90;99.90
8557;DHT22;4316;53.840;10.762;2022-11-20T11:16:55;4.00;99.90
8557;DHT22;4316;53.840;10.762;2022-11-20T11:19:21;3.90;99.90
8557;DHT22;4316;53.840;10.762;2022-11-20T11:21:47;3.80;99.90
8557;DHT22;4316;53.840;10.762;2022-11-20T11:24:26;3.80;99.90
8557;DHT22;4316;53.840;10.762;2022-11-20T11:26:58;3.80;99.90
8557;DHT22;4316;53.840;10.762;2022-11-20T11:29:24;3.90;99.90
8557;DHT22;4316;53.840;10.762;2022-11-20T11:32:11;4.10;99.90
8557;DHT22;4316;53.840;10.762;2022-11-20T11:34:37;4.00;99.90
8557;DHT22;4316;53.840;10.762;2022-11-20T11:37:03;4.10;99.90
8557;DHT22;4316;53.840;10.762;2022-11-20T11:39:31;4.00;99.90
8557;DHT22;4316;53.840;10.762;2022-11-20T11:41:58;3.90;99.90
8557;DHT22;4316;53.840;10.762;2022-11-20T11:44:30;3.90;99.90
8557;DHT22;4316;53.840;10.762;2022-11-20T11:47:32;3.90;99.90
8557;DHT22;4316;53.840;10.762;2022-11-20T11:53:01;3.70;99.90
8557;DHT22;4316;53.840;10.762;2022-11-20T11:55:29;3.70;99.90
8557;DHT22;4316;53.840;10.762;2022-11-20T12:00:35;3.90;99.90
8557;DHT22;4316;53.840;10.762;2022-11-20T12:03:09;3.90;99.90
8557;DHT22;4316;53.840;10.762;2022-11-20T12:05:47;4.00;99.90
8557;DHT22;4316;53.840;10.762;2022-11-20T12:08:25;4.00;99.90
8557;DHT22;4316;53.840;10.762;2022-11-20T12:13:34;4.00;99.90
8557;DHT22;4316;53.840;10.762;2022-11-20T12:16:03;4.00;99.90
8557;DHT22;4316;53.840;10.762;2022-11-20T12:18:29;4.00;99.90
8557;DHT22;4316;53.840;10.762;2022-11-20T12:43:58;3.90;99.90
8557;DHT22;4316;53.840;10.762;2022-11-20T12:46:46;4.00;99.90
8557;DHT22;4316;53.840;10.762;2022-11-20T12:49:35;4.00;99.90
8557;DHT22;4316;53.840;10.762;2022-11-20T12:52:16;4.00;99.90
8557;DHT22;4316;53.840;10.762;2022-11-20T12:55:09;3.90;99.90
8557;DHT22;4316;53.840;10.762;2022-11-20T13:00:24;3.80;99.90
8557;DHT22;4316;53.840;10.762;2022-11-20T13:08:19;3.70;99.90
8557;DHT22;4316;53.840;10.762;2022-11-20T13:11:04;3.70;99.90
8557;DHT22;4316;53.840;10.762;2022-11-20T13:14:11;3.70;99.90
8557;DHT22;4316;53.840;10.762;2022-11-20T13:19:13;3.70;99.90
8557;DHT22;4316;53.840;10.762;2022-11-20T13:21:42;3.60;99.90
8557;DHT22;4316;53.840;10.762;2022-11-20T13:24:29;3.60;99.90
8557;DHT22;4316;53.840;10.762;2022-11-20T13:27:05;3.60;99.90
8557;DHT22;4316;53.840;10.762;2022-11-20T13:29:58;3.60;99.90
8557;DHT22;4316;53.840;10.762;2022-11-20T13:32:26;3.60;99.90
8557;DHT22;4316;53.840;10.762;2022-11-20T13:35:02;3.50;99.90
8557;DHT22;4316;53.840;10.762;2022-11-20T13:37:34;3.50;99.90
8557;DHT22;4316;53.840;10.762;2022-11-20T13:42:45;3.50;99.90
8557;DHT22;4316;53.840;10.762;2022-11-20T13:45:26;3.40;99.90
8557;DHT22;4316;53.840;10.762;2022-11-20T13:47:52;3.40;99.90
8557;DHT22;4316;53.840;10.762;2022-11-20T13:50:19;3.50;99.90
8557;DHT22;4316;53.840;10.762;2022-11-20T13:53:04;3.50;99.90
8557;DHT22;4316;53.840;10.762;2022-11-20T13:55:40;3.50;99.90
8557;DHT22;4316;53.840;10.762;2022-11-20T14:01:13;3.40;99.90
8557;DHT22;4316;53.840;10.762;2022-11-20T14:03:40;3.40;99.90
8557;DHT22;4316;53.840;10.762;2022-11-20T14:06:13;3.40;99.90
8557;DHT22;4316;53.840;10.762;2022-11-20T14:08:43;3.40;99.90
8557;DHT22;4316;53.840;10.762;2022-11-20T14:11:16;3.40;99.90
8557;DHT22;4316;53.840;10.762;2022-11-20T14:16:37;3.40;99.90
8557;DHT22;4316;53.840;10.762;2022-11-20T14:19:25;3.30;99.90
8557;DHT22;4316;53.840;10.762;2022-11-20T14:22:08;3.30;99.90
8557;DHT22;4316;53.840;10.762;2022-11-20T14:24:34;3.30;99.90
8557;DHT22;4316;53.840;10.762;2022-11-20T14:27:00;3.20;99.90
8557;DHT22;4316;53.840;10.762;2022-11-20T14:29:33;3.10;99.90
8557;DHT22;4316;53.840;10.762;2022-11-20T14:32:01;3.10;99.90
8557;DHT22;4316;53.840;10.762;2022-11-20T14:34:29;3.00;99.90
8557;DHT22;4316;53.840;10.762;2022-11-20T14:37:01;3.00;99.90
8557;DHT22;4316;53.840;10.762;2022-11-20T14:39:32;3.00;99.90
8557;DHT22;4316;53.840;10.762;2022-11-20T14:41:58;2.90;99.90
8557;DHT22;4316;53.840;10.762;2022-11-20T14:44:33;2.90;99.90
8557;DHT22;4316;53.840;10.762;2022-11-20T14:47:00;2.90;99.90
8557;DHT22;4316;53.840;10.762;2022-11-20T14:49:29;2.90;99.90
8557;DHT22;4316;53.840;10.762;2022-11-20T14:52:01;2.90;99.90
8557;DHT22;4316;53.840;10.762;2022-11-20T14:54:26;2.80;99.90
8557;DHT22;4316;53.840;10.762;2022-11-20T14:56:58;2.80;99.90
8557;DHT22;4316;53.840;10.762;2022-11-20T14:59:26;2.90;99.90
8557;DHT22;4316;53.840;10.762;2022-11-20T15:02:05;2.90;99.90
8557;DHT22;4316;53.840;10.762;2022-11-20T15:04:31;2.90;99.90
8557;DHT22;4316;53.840;10.762;2022-11-20T15:06:59;2.80;99.90
8557;DHT22;4316;53.840;10.762;2022-11-20T15:09:25;2.70;99.90
8557;DHT22;4316;53.840;10.762;2022-11-20T15:12:00;2.60;99.90
8557;DHT22;4316;53.840;10.762;2022-11-20T15:14:27;2.60;99.90
8557;DHT22;4316;53.840;10.762;2022-11-20T15:16:57;2.50;99.90
8557;DHT22;4316;53.840;10.762;2022-11-20T15:19:24;2.50;99.90
8557;DHT22;4316;53.840;10.762;2022-11-20T15:21:51;2.50;99.90
8557;DHT22;4316;53.840;10.762;2022-11-20T15:24:16;2.50;99.90
8557;DHT22;4316;53.840;10.762;2022-11-20T15:26:43;2.50;99.90
8557;DHT22;4316;53.840;10.762;2022-11-20T15:29:14;2.50;99.90
8557;DHT22;4316;53.840;10.762;2022-11-20T15:31:40;2.40;99.90
8557;DHT22;4316;53.840;10.762;2022-11-20T15:34:11;2.50;99.90
8557;DHT22;4316;53.840;10.762;2022-11-20T15:36:38;2.40;99.90
8557;DHT22;4316;53.840;10.762;2022-11-20T15:39:04;2.50;99.90
8557;DHT22;4316;53.840;10.762;2022-11-20T15:41:29;2.40;99.90
8557;DHT22;4316;53.840;10.762;2022-11-20T15:43:55;2.30;99.90
8557;DHT22;4316;53.840;10.762;2022-11-20T15:46:26;2.30;99.90
8557;DHT22;4316;53.840;10.762;2022-11-20T15:48:55;2.20;99.90
8557;DHT22;4316;53.840;10.762;2022-11-20T15:51:30;2.20;99.90
8557;DHT22;4316;53.840;10.762;2022-11-20T15:53:57;2.10;99.90
8557;DHT22;4316;53.840;10.762;2022-11-20T15:56:23;2.10;99.90
8557;DHT22;4316;53.840;10.762;2022-11-20T15:58:49;2.10;99.90
8557;DHT22;4316;53.840;10.762;2022-11-20T16:01:17;2.10;99.90
8557;DHT22;4316;53.840;10.762;2022-11-20T16:03:43;2.10;99.90
8557;DHT22;4316;53.840;10.762;2022-11-20T16:06:09;2.10;99.90
8557;DHT22;4316;53.840;10.762;2022-11-20T16:08:34;2.00;99.90
8557;DHT22;4316;53.840;10.762;2022-11-20T16:11:00;2.00;99.90
8557;DHT22;4316;53.840;10.762;2022-11-20T16:13:26;1.90;99.90
8557;DHT22;4316;53.840;10.762;2022-11-20T16:16:34;1.90;99.90
8557;DHT22;4316;53.840;10.762;2022-11-20T16:19:00;1.90;99.90
8557;DHT22;4316;53.840;10.762;2022-11-20T16:21:26;1.90;99.90
8557;DHT22;4316;53.840;10.762;2022-11-20T16:23:59;1.90;99.90
8557;DHT22;4316;53.840;10.762;2022-11-20T16:26:25;2.00;99.90
8557;DHT22;4316;53.840;10.762;2022-11-20T16:28:51;2.10;99.90
8557;DHT22;4316;53.840;10.762;2022-11-20T16:31:18;2.10;99.90
8557;DHT22;4316;53.840;10.762;2022-11-20T16:33:52;2.10;99.90
8557;DHT22;4316;53.840;10.762;2022-11-20T16:36:20;2.10;99.90
8557;DHT22;4316;53.840;10.762;2022-11-20T16:38:46;2.00;99.90
8557;DHT22;4316;53.840;10.762;2022-11-20T16:41:12;2.00;99.90
8557;DHT22;4316;53.840;10.762;2022-11-20T16:43:51;2.00;99.90
8557;DHT22;4316;53.840;10.762;2022-11-20T16:46:20;2.00;99.90
8557;DHT22;4316;53.840;10.762;2022-11-20T16:48:54;2.00;99.90
8557;DHT22;4316;53.840;10.762;2022-11-20T16:51:21;2.00;99.90
8557;DHT22;4316;53.840;10.762;2022-11-20T16:53:47;2.00;99.90
8557;DHT22;4316;53.840;10.762;2022-11-20T16:56:16;2.00;99.90
8557;DHT22;4316;53.840;10.762;2022-11-20T16:58:47;2.10;99.90
8557;DHT22;4316;53.840;10.762;2022-11-20T17:01:15;2.10;99.90
8557;DHT22;4316;53.840;10.762;2022-11-20T17:03:43;2.10;99.90
8557;DHT22;4316;53.840;10.762;2022-11-20T17:06:17;2.00;99.90
8557;DHT22;4316;53.840;10.762;2022-11-20T17:08:43;2.00;99.90
8557;DHT22;4316;53.840;10.762;2022-11-20T17:11:11;2.00;99.90
8557;DHT22;4316;53.840;10.762;2022-11-20T17:13:38;2.00;99.90
8557;DHT22;4316;53.840;10.762;2022-11-20T17:16:09;1.90;99.90
8557;DHT22;4316;53.840;10.762;2022-11-20T17:18:36;1.90;99.90
8557;DHT22;4316;53.840;10.762;2022-11-20T17:21:02;1.90;99.90
8557;DHT22;4316;53.840;10.762;2022-11-20T17:23:31;1.90;99.90
8557;DHT22;4316;53.840;10.762;2022-11-20T17:26:06;1.90;99.90
8557;DHT22;4316;53.840;10.762;2022-11-20T17:28:33;1.90;99.90
8557;DHT22;4316;53.840;10.762;2022-11-20T17:31:13;1.90;99.90
8557;DHT22;4316;53.840;10.762;2022-11-20T17:33:41;1.90;99.90
8557;DHT22;4316;53.840;10.762;2022-11-20T17:36:08;1.90;99.90
8557;DHT22;4316;53.840;10.762;2022-11-20T17:38:35;1.90;99.90
8557;DHT22;4316;53.840;10.762;2022-11-20T17:41:08;1.90;99.90
8557;DHT22;4316;53.840;10.762;2022-11-20T17:43:35;1.90;99.90
8557;DHT22;4316;53.840;10.762;2022-11-20T17:46:07;1.90;99.90
8557;DHT22;4316;53.840;10.762;2022-11-20T17:48:34;1.90;99.90